Time,TemperatureF,DewpointF,PressureIn,WindDirection,WindDirectionDegrees,WindSpeedMPH,WindSpeedGustMPH,Humidity,HourlyPrecipIn,Conditions,Clouds,dailyrainin,SoftwareType,DateUTC
2013-06-02 00:10:00,76.1,75.5,29.67,South,180,1.7,-999.0,98,-99.99,,,0.00,Acu-Link.com,2013-06-02 05:10:00,
2013-06-02 00:26:00,76.1,75.5,29.68,SSW,202,0.0,-999.0,98,-99.99,,,0.00,Acu-Link.com,2013-06-02 05:26:00,
2013-06-02 00:41:00,75.0,72.2,29.73,NNE,22,8.3,-999.0,91,-99.99,,,0.00,Acu-Link.com,2013-06-02 05:41:00,
2013-06-02 00:56:00,69.1,68.5,29.73,SW,225,3.2,-999.0,98,-99.99,,,0.09,Acu-Link.com,2013-06-02 05:56:00,
2013-06-02 01:11:00,68.0,67.4,29.70,NNW,337,4.2,-999.0,98,-99.99,,,0.35,Acu-Link.com,2013-06-02 06:11:00,
2013-06-02 01:26:00,67.8,67.2,29.70,SE,135,1.1,-999.0,98,-99.99,,,0.67,Acu-Link.com,2013-06-02 06:26:00,
2013-06-02 01:41:00,67.6,67.0,29.69,ESE,112,1.1,-999.0,98,-99.99,,,0.68,Acu-Link.com,2013-06-02 06:41:00,
2013-06-02 01:56:00,67.6,67.0,29.69,NE,45,0.0,-999.0,98,-99.99,,,0.68,Acu-Link.com,2013-06-02 06:56:00,
2013-06-02 02:11:00,67.6,67.0,29.69,NE,45,0.0,-999.0,98,-99.99,,,0.68,Acu-Link.com,2013-06-02 07:11:00,
2013-06-02 02:26:00,68.0,67.4,29.70,ESE,112,0.0,-999.0,98,-99.99,,,0.69,Acu-Link.com,2013-06-02 07:26:00,
2013-06-02 02:42:00,68.0,67.4,29.70,NE,45,0.0,-999.0,98,-99.99,,,0.75,Acu-Link.com,2013-06-02 07:42:00,
2013-06-02 02:57:00,67.8,67.2,29.70,East,90,0.0,-999.0,98,-99.99,,,0.75,Acu-Link.com,2013-06-02 07:57:00,
2013-06-02 03:13:00,68.0,67.4,29.71,ESE,112,0.0,-999.0,98,-99.99,,,0.75,Acu-Link.com,2013-06-02 08:13:00,
2013-06-02 03:28:00,68.0,67.4,29.70,SSE,157,1.7,-999.0,98,-99.99,,,0.75,Acu-Link.com,2013-06-02 08:28:00,
2013-06-02 03:43:00,67.8,67.2,29.69,West,270,0.0,-999.0,98,-99.99,,,0.76,Acu-Link.com,2013-06-02 08:43:00,
2013-06-02 03:58:00,67.5,66.9,29.69,NE,45,0.0,-999.0,98,-99.99,,,0.76,Acu-Link.com,2013-06-02 08:58:00,
2013-06-02 04:13:00,67.5,66.9,29.69,East,90,2.7,-999.0,98,-99.99,,,0.76,Acu-Link.com,2013-06-02 09:13:00,
2013-06-02 04:28:00,67.5,66.9,29.69,SSE,157,4.2,-999.0,98,-99.99,,,0.76,Acu-Link.com,2013-06-02 09:28:00,
2013-06-02 04:44:00,67.5,66.9,29.69,ESE,112,1.7,-999.0,98,-99.99,,,0.78,Acu-Link.com,2013-06-02 09:44:00,
2013-06-02 04:59:00,67.3,66.7,29.70,WSW,247,2.2,-999.0,98,-99.99,,,0.83,Acu-Link.com,2013-06-02 09:59:00,
2013-06-02 05:14:00,67.1,66.5,29.70,South,180,5.8,-999.0,98,-99.99,,,0.84,Acu-Link.com,2013-06-02 10:14:00,
2013-06-02 05:29:00,67.1,66.5,29.71,South,180,2.2,-999.0,98,-99.99,,,0.85,Acu-Link.com,2013-06-02 10:29:00,
2013-06-02 05:44:00,66.9,66.3,29.71,SSE,157,1.7,-999.0,98,-99.99,,,0.88,Acu-Link.com,2013-06-02 10:44:00,
2013-06-02 05:59:00,66.7,66.1,29.70,SSE,157,3.2,-999.0,98,-99.99,,,0.95,Acu-Link.com,2013-06-02 10:59:00,
2013-06-02 06:14:00,66.7,66.1,29.69,SE,135,5.3,-999.0,98,-99.99,,,0.99,Acu-Link.com,2013-06-02 11:14:00,
2013-06-02 06:29:00,66.9,66.3,29.69,South,180,3.2,-999.0,98,-99.99,,,1.04,Acu-Link.com,2013-06-02 11:29:00,
2013-06-02 06:45:00,66.7,66.1,29.69,SSE,157,4.7,-999.0,98,-99.99,,,1.08,Acu-Link.com,2013-06-02 11:45:00,
2013-06-02 07:00:00,66.9,66.3,29.68,SSE,157,4.7,-999.0,98,-99.99,,,1.11,Acu-Link.com,2013-06-02 12:00:00,
2013-06-02 07:15:00,66.7,66.1,29.68,ESE,112,4.7,-999.0,98,-99.99,,,1.13,Acu-Link.com,2013-06-02 12:15:00,
2013-06-02 07:30:00,67.3,66.7,29.68,SSW,202,2.2,-999.0,98,-99.99,,,1.14,Acu-Link.com,2013-06-02 12:30:00,
2013-06-02 07:45:00,67.6,67.0,29.69,ESE,112,0.0,-999.0,98,-99.99,,,1.15,Acu-Link.com,2013-06-02 12:45:00,
2013-06-02 08:00:00,68.7,68.1,29.67,SSE,157,2.7,-999.0,98,-99.99,,,1.15,Acu-Link.com,2013-06-02 13:00:00,
2013-06-02 08:15:00,68.9,68.3,29.68,NE,45,2.2,-999.0,98,-99.99,,,1.15,Acu-Link.com,2013-06-02 13:15:00,
2013-06-02 08:30:00,70.2,69.6,29.68,NNE,22,2.2,-999.0,98,-99.99,,,1.15,Acu-Link.com,2013-06-02 13:30:00,
2013-06-02 08:45:00,70.7,70.1,29.68,SSW,202,2.2,-999.0,98,-99.99,,,1.15,Acu-Link.com,2013-06-02 13:45:00,
2013-06-02 09:00:00,70.7,70.1,29.68,South,180,2.2,-999.0,98,-99.99,,,1.15,Acu-Link.com,2013-06-02 14:00:00,
2013-06-02 09:16:00,70.7,70.1,29.68,NW,315,1.7,-999.0,98,-99.99,,,1.15,Acu-Link.com,2013-06-02 14:16:00,
2013-06-02 09:31:00,71.2,70.6,29.68,South,180,2.2,-999.0,98,-99.99,,,1.15,Acu-Link.com,2013-06-02 14:31:00,
2013-06-02 09:46:00,72.0,71.4,29.68,SSE,157,1.7,-999.0,98,-99.99,,,1.15,Acu-Link.com,2013-06-02 14:46:00,
2013-06-02 10:01:00,72.7,72.1,29.68,SSW,202,4.7,-999.0,98,-99.99,,,1.15,Acu-Link.com,2013-06-02 15:01:00,
2013-06-02 10:16:00,72.5,71.9,29.68,WSW,247,3.2,-999.0,98,-99.99,,,1.15,Acu-Link.com,2013-06-02 15:16:00,
2013-06-02 10:31:00,73.8,72.6,29.67,ESE,112,1.7,-999.0,96,-99.99,,,1.15,Acu-Link.com,2013-06-02 15:31:00,
2013-06-02 10:46:00,75.4,72.6,29.67,SSE,157,3.2,-999.0,91,-99.99,,,1.15,Acu-Link.com,2013-06-02 15:46:00,
2013-06-02 11:01:00,75.4,71.3,29.66,SSW,202,4.2,-999.0,87,-99.99,,,1.15,Acu-Link.com,2013-06-02 16:01:00,
2013-06-02 11:16:00,77.2,72.0,29.65,SW,225,1.7,-999.0,84,-99.99,,,1.15,Acu-Link.com,2013-06-02 16:16:00,
2013-06-02 11:32:00,78.1,72.5,29.66,NNW,337,5.3,-999.0,83,-99.99,,,1.15,Acu-Link.com,2013-06-02 16:32:00,
2013-06-02 11:47:00,78.1,72.1,29.65,WNW,292,4.7,-999.0,82,-99.99,,,1.15,Acu-Link.com,2013-06-02 16:47:00,
2013-06-02 12:02:00,78.6,72.6,29.65,West,270,2.7,-999.0,82,-99.99,,,1.15,Acu-Link.com,2013-06-02 17:02:00,
2013-06-02 12:17:00,78.1,72.1,29.66,West,270,3.2,-999.0,82,-99.99,,,1.15,Acu-Link.com,2013-06-02 17:17:00,
2013-06-02 12:32:00,79.0,72.7,29.66,WSW,247,2.2,-999.0,81,-99.99,,,1.15,Acu-Link.com,2013-06-02 17:32:00,
2013-06-02 12:47:00,80.2,73.1,29.67,WNW,292,3.2,-999.0,79,-99.99,,,1.15,Acu-Link.com,2013-06-02 17:47:00,
2013-06-02 13:02:00,81.3,74.1,29.67,NNE,22,3.7,-999.0,79,-99.99,,,1.15,Acu-Link.com,2013-06-02 18:02:00,
2013-06-02 13:17:00,82.9,73.7,29.67,South,180,3.2,-999.0,74,-99.99,,,1.15,Acu-Link.com,2013-06-02 18:17:00,
2013-06-02 13:32:00,80.4,72.9,29.67,West,270,0.0,-999.0,78,-99.99,,,1.15,Acu-Link.com,2013-06-02 18:32:00,
2013-06-02 13:48:00,80.6,72.3,29.67,North,0,3.2,-999.0,76,-99.99,,,1.15,Acu-Link.com,2013-06-02 18:48:00,
2013-06-02 14:03:00,84.2,74.2,29.67,ESE,112,2.2,-999.0,72,-99.99,,,1.15,Acu-Link.com,2013-06-02 19:03:00,
2013-06-02 14:18:00,82.8,73.2,29.66,South,180,1.7,-999.0,73,-99.99,,,1.15,Acu-Link.com,2013-06-02 19:18:00,
2013-06-02 14:33:00,85.5,73.7,29.65,WNW,292,4.2,-999.0,68,-99.99,,,1.15,Acu-Link.com,2013-06-02 19:33:00,
2013-06-02 14:48:00,84.2,73.3,29.65,NNE,22,6.8,-999.0,70,-99.99,,,1.15,Acu-Link.com,2013-06-02 19:48:00,
2013-06-02 15:03:00,83.1,72.7,29.64,NNE,22,1.7,-999.0,71,-99.99,,,1.15,Acu-Link.com,2013-06-02 20:03:00,
2013-06-02 15:18:00,84.2,72.5,29.64,SSW,202,3.2,-999.0,68,-99.99,,,1.15,Acu-Link.com,2013-06-02 20:18:00,
2013-06-02 15:33:00,84.7,72.5,29.64,NE,45,2.7,-999.0,67,-99.99,,,1.15,Acu-Link.com,2013-06-02 20:33:00,
2013-06-02 15:48:00,87.8,74.5,29.64,East,90,2.2,-999.0,65,-99.99,,,1.15,Acu-Link.com,2013-06-02 20:48:00,
2013-06-02 16:04:00,85.5,74.6,29.63,WNW,292,4.7,-999.0,70,-99.99,,,1.15,Acu-Link.com,2013-06-02 21:04:00,
2013-06-02 16:19:00,84.7,73.8,29.63,NNE,22,2.7,-999.0,70,-99.99,,,1.15,Acu-Link.com,2013-06-02 21:19:00,
2013-06-02 16:34:00,84.2,73.3,29.62,West,270,4.2,-999.0,70,-99.99,,,1.15,Acu-Link.com,2013-06-02 21:34:00,
2013-06-02 16:49:00,83.1,73.5,29.61,NNE,22,2.2,-999.0,73,-99.99,,,1.15,Acu-Link.com,2013-06-02 21:49:00,
2013-06-02 17:04:00,84.7,73.4,29.61,WNW,292,2.2,-999.0,69,-99.99,,,1.15,Acu-Link.com,2013-06-02 22:04:00,
2013-06-02 17:19:00,84.6,75.0,29.60,SSW,202,3.7,-999.0,73,-99.99,,,1.15,Acu-Link.com,2013-06-02 22:19:00,
2013-06-02 17:34:00,88.7,74.5,29.60,SSW,202,1.1,-999.0,63,-99.99,,,1.15,Acu-Link.com,2013-06-02 22:34:00,
2013-06-02 17:49:00,87.6,73.9,29.60,SW,225,1.7,-999.0,64,-99.99,,,1.15,Acu-Link.com,2013-06-02 22:49:00,
2013-06-02 18:04:00,86.2,73.9,29.60,North,0,0.0,-999.0,67,-99.99,,,1.15,Acu-Link.com,2013-06-02 23:04:00,
2013-06-02 18:20:00,83.7,74.5,29.61,South,180,0.0,-999.0,74,-99.99,,,1.15,Acu-Link.com,2013-06-02 23:20:00,
2013-06-02 18:35:00,82.6,75.0,29.60,SW,225,0.0,-999.0,78,-99.99,,,1.15,Acu-Link.com,2013-06-02 23:35:00,
2013-06-02 18:50:00,80.1,76.6,29.60,NE,45,0.0,-999.0,89,-99.99,,,1.15,Acu-Link.com,2013-06-02 23:50:00,
2013-06-02 19:05:00,78.1,75.3,29.60,East,90,0.0,-999.0,91,-99.99,,,1.15,Acu-Link.com,2013-06-03 00:05:00,
2013-06-02 19:20:00,77.2,76.6,29.60,ESE,112,0.0,-999.0,98,-99.99,,,1.15,Acu-Link.com,2013-06-03 00:20:00,
2013-06-02 19:35:00,77.0,76.4,29.60,NNE,22,1.1,-999.0,98,-99.99,,,1.15,Acu-Link.com,2013-06-03 00:35:00,
2013-06-02 19:50:00,76.1,75.5,29.60,NE,45,1.7,-999.0,98,-99.99,,,1.15,Acu-Link.com,2013-06-03 00:50:00,
2013-06-02 20:05:00,75.4,74.8,29.61,NNE,22,1.7,-999.0,98,-99.99,,,1.15,Acu-Link.com,2013-06-03 01:05:00,
2013-06-02 20:20:00,74.8,74.2,29.61,WNW,292,0.0,-999.0,98,-99.99,,,1.15,Acu-Link.com,2013-06-03 01:20:00,
2013-06-02 20:36:00,74.1,73.5,29.61,NW,315,0.0,-999.0,98,-99.99,,,1.15,Acu-Link.com,2013-06-03 01:36:00,
2013-06-02 20:51:00,73.9,73.3,29.62,NW,315,0.0,-999.0,98,-99.99,,,1.15,Acu-Link.com,2013-06-03 01:51:00,
2013-06-02 21:21:00,73.2,72.6,29.65,NNE,22,0.0,-999.0,98,-99.99,,,1.15,Acu-Link.com,2013-06-03 02:21:00,
2013-06-02 21:51:00,73.6,73.0,29.66,ENE,67,1.1,-999.0,98,-99.99,,,1.15,Acu-Link.com,2013-06-03 02:51:00,
2013-06-02 22:06:00,73.6,73.0,29.67,NE,45,0.0,-999.0,98,-99.99,,,1.15,Acu-Link.com,2013-06-03 03:06:00,
2013-06-02 22:21:00,73.2,72.6,29.66,NNE,22,0.0,-999.0,98,-99.99,,,1.15,Acu-Link.com,2013-06-03 03:21:00,
2013-06-02 22:36:00,72.7,72.1,29.66,NNW,337,0.0,-999.0,98,-99.99,,,1.15,Acu-Link.com,2013-06-03 03:36:00,
2013-06-02 22:51:00,72.5,71.9,29.66,WNW,292,0.0,-999.0,98,-99.99,,,1.15,Acu-Link.com,2013-06-03 03:51:00,
2013-06-02 23:07:00,72.1,71.5,29.66,West,270,0.0,-999.0,98,-99.99,,,1.15,Acu-Link.com,2013-06-03 04:07:00,
2013-06-02 23:22:00,71.8,71.2,29.66,NNE,22,1.1,-999.0,98,-99.99,,,1.15,Acu-Link.com,2013-06-03 04:22:00,
2013-06-02 23:37:00,72.1,71.5,29.67,SSW,202,0.0,-999.0,98,-99.99,,,1.15,Acu-Link.com,2013-06-03 04:37:00,
2013-06-02 23:52:00,72.1,71.5,29.67,SW,225,0.0,-999.0,98,-99.99,,,1.15,Acu-Link.com,2013-06-03 04:52:00,